| time (UTC) | temp C | wind direction | speed KPH | gust KPH | rain 1hr cm | rain 24hr cm | rain mn cm | humidity % | barometer mb |
| 20260507061119 | 13 | 270 | 6.4 | 12.9 | 0.00 | 0.00 | 0.00 | 5 | 1236.4 |
| 20260507060617 | 13 | 270 | 9.7 | 16.1 | 0.00 | 0.00 | 0.00 | 5 | 1236.6 |
| 20260507060114 | 13 | 247 | 11.3 | 27.4 | 0.00 | 0.00 | 0.00 | 6 | 1237.7 |
| 20260507055611 | 13 | 225 | 8.0 | 16.1 | 0.00 | 0.00 | 0.00 | 5 | 1236.3 |
| 20260507055108 | 13 | 270 | 9.7 | 16.1 | 0.00 | 0.00 | 0.00 | 5 | 1236.1 |
| 20260507054606 | 13 | 270 | 8.0 | 16.1 | 0.00 | 0.00 | 0.00 | 6 | 1238.1 |
| 20260507054103 | 13 | 270 | 6.4 | 14.5 | 0.00 | 0.00 | 0.00 | 5 | 1235.9 |
| 20260507053600 | 13 | 135 | 0.0 | 0.0 | 0.00 | 0.00 | 0.00 | 5 | 1235.6 |
| 20260507053057 | 13 | 135 | 4.8 | 4.8 | 0.00 | 0.00 | 0.00 | 5 | 1236.3 |
| 20260507052554 | 13 | 135 | 0.0 | 0.0 | 0.00 | 0.00 | 0.00 | 6 | 1236.6 |
| 20260507052052 | 13 | 135 | 4.8 | 0.0 | 0.00 | 0.00 | 0.00 | 5 | 1235.9 |
| 20260507051549 | 13 | 135 | 0.0 | 0.0 | 0.00 | 0.00 | 0.00 | 6 | 1236.9 |
| 20260507051046 | 13 | 135 | 4.8 | 6.4 | 0.00 | 0.00 | 0.00 | 6 | 1237.7 |
| 20260507050543 | 13 | 135 | 4.8 | 6.4 | 0.00 | 0.00 | 0.00 | 6 | 1240.5 |
| 20260507050041 | 13 | 135 | 4.8 | 4.8 | 0.00 | 0.00 | 0.00 | 6 | 1237.9 |
| 20260507045538 | 12 | 135 | 4.8 | 6.4 | 0.00 | 0.00 | 0.00 | 6 | 1237.8 |
| 20260507044024 | 12 | 135 | 0.0 | 0.0 | 0.00 | 0.00 | 0.00 | 6 | 1238.7 |
| 20260507043522 | 12 | 135 | 0.0 | 0.0 | 0.00 | 0.00 | 0.00 | 6 | 1239.1 |
| 20260507043019 | 12 | 135 | 0.0 | 0.0 | 0.00 | 0.00 | 0.00 | 6 | 1240.1 |
| 20260507042516 | 12 | 135 | 0.0 | 0.0 | 0.00 | 0.00 | 0.00 | 6 | 1240.3 |
| 20260507042013 | 12 | 135 | 6.4 | 0.0 | 0.00 | 0.00 | 0.00 | 6 | 1239.4 |
| 20260507041510 | 12 | 135 | 0.0 | 0.0 | 0.00 | 0.00 | 0.00 | 6 | 1237.5 |
| 20260507041008 | 12 | 135 | 0.0 | 0.0 | 0.00 | 0.00 | 0.00 | 6 | 1238.0 |
| 20260507040507 | 12 | 135 | 4.8 | 6.4 | 0.00 | 0.00 | 0.00 | 6 | 1237.5 |
| 20260507040002 | 12 | 135 | 6.4 | 12.9 | 0.00 | 0.00 | 0.00 | 6 | 1236.6 |
| 20260507035459 | 12 | 270 | 4.8 | 6.4 | 0.00 | 0.00 | 0.00 | 6 | 1237.2 |
| 20260507034957 | 13 | 270 | 4.8 | 6.4 | 0.00 | 0.00 | 0.00 | 6 | 1236.9 |
| 20260507034454 | 13 | 270 | 8.0 | 11.3 | 0.00 | 0.00 | 0.00 | 5 | 1236.2 |
| 20260507033951 | 13 | 270 | 8.0 | 14.5 | 0.00 | 0.00 | 0.00 | 6 | 1237.0 |
| 20260507033448 | 13 | 247 | 8.0 | 20.9 | 0.00 | 0.00 | 0.00 | 5 | 1235.9 |
| 20260507032946 | 13 | 270 | 8.0 | 12.9 | 0.00 | 0.00 | 0.00 | 5 | 1235.5 |
| 20260507032443 | 13 | 270 | 6.4 | 11.3 | 0.00 | 0.00 | 0.00 | 5 | 1235.6 |
| 20260507031940 | 13 | 270 | 9.7 | 24.1 | 0.00 | 0.00 | 0.00 | 6 | 1236.9 |
| 20260507031437 | 13 | 247 | 8.0 | 14.5 | 0.00 | 0.00 | 0.00 | 5 | 1234.9 |
| 20260507030935 | 13 | 270 | 6.4 | 9.7 | 0.00 | 0.00 | 0.00 | 5 | 1234.7 |
| 20260507030432 | 13 | 247 | 6.4 | 19.3 | 0.00 | 0.00 | 0.00 | 5 | 1234.9 |
| 20260507025929 | 13 | 270 | 9.7 | 22.5 | 0.00 | 0.00 | 0.00 | 5 | 1234.8 |
| 20260507025426 | 13 | 270 | 9.7 | 19.3 | 0.00 | 0.00 | 0.00 | 5 | 1236.0 |
| 20260507024924 | 13 | 225 | 6.4 | 17.7 | 0.00 | 0.00 | 0.00 | 5 | 1234.4 |
| 20260507024421 | 13 | 45 | 8.0 | 22.5 | 0.00 | 0.00 | 0.00 | 5 | 1234.6 |
| 20260507023918 | 13 | 247 | 6.4 | 24.1 | 0.00 | 0.00 | 0.00 | 5 | 1234.5 |
| 20260507023415 | 13 | 225 | 8.0 | 17.7 | 0.00 | 0.00 | 0.00 | 5 | 1235.5 |
| 20260507022913 | 13 | 67 | 8.0 | 17.7 | 0.00 | 0.00 | 0.00 | 6 | 1236.4 |
| 20260507022410 | 13 | 112 | 6.4 | 9.7 | 0.00 | 0.00 | 0.00 | 5 | 1233.6 |
| 20260507021402 | 13 | 225 | 9.7 | 27.4 | 0.00 | 0.00 | 0.00 | 5 | 1234.2 |
| 20260507020859 | 13 | 225 | 8.0 | 17.7 | 0.00 | 0.00 | 0.00 | 5 | 1233.7 |
| 20260507020356 | 13 | 270 | 9.7 | 17.7 | 0.00 | 0.00 | 0.00 | 5 | 1233.8 |
| 20260507015853 | 13 | 135 | 8.0 | 16.1 | 0.00 | 0.00 | 0.00 | 5 | 1233.9 |
| 20260507015351 | 13 | 270 | 6.4 | 14.5 | 0.00 | 0.00 | 0.00 | 5 | 1233.8 |
| 20260507014848 | 13 | 270 | 8.0 | 16.1 | 0.00 | 0.00 | 0.00 | 5 | 1233.6 |
| 20260507014345 | 13 | 270 | 8.0 | 19.3 | 0.00 | 0.00 | 0.00 | 5 | 1233.0 |
| 20260507013842 | 13 | 90 | 4.8 | 9.7 | 0.00 | 0.00 | 0.00 | 6 | 1234.4 |
| 20260507013339 | 13 | 270 | 4.8 | 9.7 | 0.00 | 0.00 | 0.00 | 6 | 1233.8 |
| 20260507012837 | 13 | 247 | 8.0 | 16.1 | 0.00 | 0.00 | 0.00 | 5 | 1232.8 |
| 20260507012334 | 13 | 270 | 8.0 | 12.9 | 0.00 | 0.00 | 0.00 | 5 | 1232.9 |
| 20260507011831 | 13 | 247 | 6.4 | 12.9 | 0.00 | 0.00 | 0.00 | 6 | 1234.2 |
| 20260507011328 | 13 | 270 | 8.0 | 14.5 | 0.00 | 0.00 | 0.00 | 6 | 1234.7 |
| 20260507010826 | 13 | 270 | 8.0 | 17.7 | 0.00 | 0.00 | 0.00 | 6 | 1231.9 |
| 20260507010323 | 13 | 270 | 8.0 | 14.5 | 0.00 | 0.00 | 0.00 | 6 | 1233.1 |
| 20260507005820 | 14 | 247 | 8.0 | 19.3 | 0.00 | 0.00 | 0.00 | 6 | 1232.7 |
| 20260507005317 | 14 | 247 | 8.0 | 16.1 | 0.00 | 0.00 | 0.00 | 6 | 1233.0 |
| 20260507004814 | 14 | 247 | 8.0 | 19.3 | 0.00 | 0.00 | 0.00 | 6 | 1233.1 |
| 20260507004312 | 14 | 247 | 9.7 | 30.6 | 0.00 | 0.00 | 0.00 | 6 | 1232.2 |
| 20260507003809 | 14 | 270 | 11.3 | 27.4 | 0.00 | 0.00 | 0.00 | 6 | 1232.6 |
| 20260507003306 | 14 | 135 | 6.4 | 16.1 | 0.00 | 0.00 | 0.00 | 6 | 1232.4 |
| 20260507002803 | 14 | 157 | 6.4 | 16.1 | 0.00 | 0.00 | 0.00 | 6 | 1231.9 |
| 20260507002301 | 14 | 270 | 8.0 | 20.9 | 0.00 | 0.00 | 0.00 | 6 | 1231.6 |
| 20260507001758 | 14 | 270 | 6.4 | 14.5 | 0.00 | 0.00 | 0.00 | 6 | 1232.0 |
| 20260507001255 | 14 | 270 | 8.0 | 19.3 | 0.00 | 0.00 | 0.00 | 6 | 1231.0 |
| 20260507000752 | 15 | 247 | 8.0 | 19.3 | 0.00 | 0.00 | 0.00 | 6 | 1230.7 |
| 20260507000250 | 15 | 247 | 8.0 | 16.1 | 0.00 | 0.00 | 0.00 | 6 | 1230.9 |
| 20260506235747 | 15 | 135 | 4.8 | 8.0 | 0.00 | 0.00 | 0.00 | 6 | 1230.4 |
| 20260506235244 | 15 | 135 | 8.0 | 19.3 | 0.00 | 0.00 | 0.00 | 6 | 1230.7 |
| 20260506234741 | 15 | 225 | 9.7 | 17.7 | 0.00 | 0.00 | 0.00 | 6 | 1231.7 |
| 20260506234239 | 15 | 225 | 8.0 | 20.9 | 0.00 | 0.00 | 0.00 | 6 | 1230.2 |
| 20260506233736 | 15 | 270 | 9.7 | 25.7 | 0.00 | 0.00 | 0.00 | 6 | 1231.5 |
| 20260506233233 | 15 | 225 | 11.3 | 32.2 | 0.00 | 0.00 | 0.00 | 6 | 1229.6 |
| 20260506232730 | 15 | 270 | 6.4 | 14.5 | 0.00 | 0.00 | 0.00 | 6 | 1229.9 |
| 20260506232228 | 15 | 225 | 8.0 | 24.1 | 0.00 | 0.00 | 0.00 | 6 | 1230.2 |
| 20260506231725 | 15 | 225 | 8.0 | 22.5 | 0.00 | 0.00 | 0.00 | 6 | 1228.6 |
| 20260506231222 | 15 | 270 | 9.7 | 29.0 | 0.00 | 0.00 | 0.00 | 6 | 1228.6 |
| 20260506230719 | 15 | 270 | 6.4 | 19.3 | 0.00 | 0.00 | 0.00 | 6 | 1228.8 |
| 20260506225711 | 15 | 247 | 12.9 | 25.7 | 0.00 | 0.00 | 0.00 | 6 | 1228.1 |
| 20260506225208 | 15 | 270 | 6.4 | 17.7 | 0.00 | 0.00 | 0.00 | 6 | 1228.5 |
| 20260506224705 | 15 | 225 | 8.0 | 22.5 | 0.00 | 0.00 | 0.00 | 6 | 1227.4 |
| 20260506224203 | 15 | 270 | 6.4 | 17.7 | 0.00 | 0.00 | 0.00 | 6 | 1227.0 |
| 20260506223700 | 15 | 247 | 8.0 | 19.3 | 0.00 | 0.00 | 0.00 | 6 | 1228.2 |
| 20260506223157 | 15 | 270 | 9.7 | 22.5 | 0.00 | 0.00 | 0.00 | 6 | 1228.4 |
| 20260506222654 | 16 | 225 | 8.0 | 24.1 | 0.00 | 0.00 | 0.00 | 6 | 1226.9 |
| 20260506221649 | 16 | 225 | 9.7 | 24.1 | 0.00 | 0.00 | 0.00 | 6 | 1226.8 |
| 20260506221144 | 16 | 45 | 9.7 | 29.0 | 0.00 | 0.00 | 0.00 | 6 | 1227.4 |
| 20260506220641 | 16 | 225 | 8.0 | 17.7 | 0.00 | 0.00 | 0.00 | 5 | 1225.5 |
| 20260506220138 | 16 | 202 | 9.7 | 25.7 | 0.00 | 0.00 | 0.00 | 5 | 1224.3 |
| 20260506215635 | 16 | 225 | 9.7 | 33.8 | 0.00 | 0.00 | 0.00 | 5 | 1225.7 |
| 20260506215132 | 16 | 135 | 9.7 | 19.3 | 0.00 | 0.00 | 0.00 | 5 | 1224.5 |
| 20260506214630 | 16 | 247 | 9.7 | 32.2 | 0.00 | 0.00 | 0.00 | 5 | 1225.1 |
| 20260506214127 | 16 | 247 | 9.7 | 16.1 | 0.00 | 0.00 | 0.00 | 5 | 1223.7 |
| 20260506213624 | 16 | 270 | 9.7 | 24.1 | 0.00 | 0.00 | 0.00 | 5 | 1224.6 |
| 20260506213121 | 17 | 270 | 8.0 | 20.9 | 0.00 | 0.00 | 0.00 | 5 | 1221.9 |
| 20260506212619 | 17 | 270 | 6.4 | 16.1 | 0.00 | 0.00 | 0.00 | 5 | 1222.8 |
| 20260506212116 | 17 | 112 | 4.8 | 6.4 | 0.00 | 0.00 | 0.00 | 5 | 1220.8 |
| 20260506211613 | 17 | 247 | 9.7 | 20.9 | 0.00 | 0.00 | 0.00 | 5 | 1220.4 |
| 20260506211110 | 17 | 247 | 6.4 | 14.5 | 0.00 | 0.00 | 0.00 | 4 | 1219.8 |
| 20260506210608 | 17 | 67 | 0.0 | 0.0 | 0.00 | 0.00 | 0.00 | 5 | 1219.7 |
| 20260506210105 | 17 | 67 | 0.0 | 0.0 | 0.00 | 0.00 | 0.00 | 4 | 1219.1 |
| 20260506205602 | 16 | 67 | 0.0 | 0.0 | 0.00 | 0.00 | 0.00 | 4 | 1219.0 |
| 20260506205059 | 16 | 67 | 0.0 | 0.0 | 0.00 | 0.00 | 0.00 | 4 | 1219.0 |
| 20260506204557 | 16 | 67 | 0.0 | 0.0 | 0.00 | 0.00 | 0.00 | 4 | 1219.0 |
| 20260506204054 | 16 | 67 | 0.0 | 0.0 | 0.00 | 0.00 | 0.00 | 5 | 1218.8 |
| 20260506203551 | 17 | 67 | 0.0 | 0.0 | 0.00 | 0.00 | 0.00 | 4 | 1218.4 |
| 20260506202543 | 17 | 67 | 0.0 | 0.0 | 0.00 | 0.00 | 0.00 | 5 | 1218.5 |
| 20260506202040 | 17 | 67 | 0.0 | 0.0 | 0.00 | 0.00 | 0.00 | 4 | 1218.2 |
| 20260506201537 | 17 | 67 | 0.0 | 0.0 | 0.00 | 0.00 | 0.00 | 4 | 1217.8 |
| 20260506201035 | 18 | 67 | 0.0 | 0.0 | 0.00 | 0.00 | 0.00 | 4 | 1217.6 |
| 20260506200532 | 18 | 67 | 0.0 | 0.0 | 0.00 | 0.00 | 0.00 | 4 | 1217.9 |
| 20260506200029 | 18 | 67 | 0.0 | 0.0 | 0.00 | 0.00 | 0.00 | 5 | 1218.2 |
| 20260506195526 | 18 | 67 | 0.0 | 0.0 | 0.00 | 0.00 | 0.00 | 5 | 1218.4 |
| 20260506195023 | 18 | 67 | 0.0 | 0.0 | 0.00 | 0.00 | 0.00 | 4 | 1217.6 |
| 20260506194521 | 18 | 67 | 0.0 | 0.0 | 0.00 | 0.00 | 0.00 | 5 | 1218.3 |
| 20260506193513 | 18 | 67 | 0.0 | 4.8 | 0.00 | 0.00 | 0.00 | 4 | 1216.7 |
| 20260506193010 | 18 | 67 | 4.8 | 8.0 | 0.00 | 0.00 | 0.00 | 5 | 1217.0 |
| 20260506192507 | 18 | 67 | 4.8 | 9.7 | 0.00 | 0.00 | 0.00 | 4 | 1215.5 |
| 20260506192004 | 18 | 67 | 4.8 | 8.0 | 0.00 | 0.00 | 0.00 | 4 | 1216.2 |
| 20260506191501 | 19 | 67 | 0.0 | 0.0 | 0.00 | 0.00 | 0.00 | 4 | 1215.9 |
| 20260506185948 | 20 | 67 | 6.4 | 11.3 | 0.00 | 0.00 | 0.00 | 4 | 1215.3 |
| 20260506185445 | 20 | 67 | 6.4 | 12.9 | 0.00 | 0.00 | 0.00 | 4 | 1213.4 |
| 20260506184942 | 20 | 67 | 8.0 | 14.5 | 0.00 | 0.00 | 0.00 | 4 | 1214.6 |
| 20260506184439 | 20 | 67 | 8.0 | 12.9 | 0.00 | 0.00 | 0.00 | 4 | 1215.7 |
| 20260506183431 | 20 | 67 | 8.0 | 14.5 | 0.00 | 0.00 | 0.00 | 4 | 1214.4 |
| 20260506182928 | 20 | 67 | 8.0 | 12.9 | 0.00 | 0.00 | 0.00 | 4 | 1213.9 |
| 20260506181920 | 20 | 67 | 9.7 | 19.3 | 0.00 | 0.00 | 0.00 | 4 | 1213.1 |
| 20260506181417 | 20 | 67 | 9.7 | 16.1 | 0.00 | 0.00 | 0.00 | 4 | 1212.6 |
| 20260506180915 | 20 | 67 | 8.0 | 12.9 | 0.00 | 0.00 | 0.00 | 4 | 1213.5 |
| 20260506175906 | 21 | 67 | 6.4 | 9.7 | 0.00 | 0.00 | 0.00 | 4 | 1211.3 |
| 20260506175403 | 21 | 67 | 8.0 | 12.9 | 0.00 | 0.00 | 0.00 | 4 | 1212.2 |
| 20260506174901 | 21 | 67 | 8.0 | 12.9 | 0.00 | 0.00 | 0.00 | 4 | 1211.2 |
| 20260506174358 | 21 | 67 | 9.7 | 14.5 | 0.00 | 0.00 | 0.00 | 4 | 1210.8 |
| 20260506173855 | 21 | 67 | 9.7 | 12.9 | 0.00 | 0.00 | 0.00 | 4 | 1212.0 |
| 20260506173352 | 21 | 67 | 8.0 | 14.5 | 0.00 | 0.00 | 0.00 | 4 | 1212.1 |
| 20260506172850 | 21 | 67 | 8.0 | 16.1 | 0.00 | 0.00 | 0.00 | 4 | 1211.6 |
| 20260506172347 | 21 | 67 | 9.7 | 20.9 | 0.00 | 0.00 | 0.00 | 4 | 1211.2 |
| 20260506171844 | 21 | 67 | 8.0 | 12.9 | 0.00 | 0.00 | 0.00 | 4 | 1212.7 |
| 20260506171341 | 21 | 67 | 8.0 | 14.5 | 0.00 | 0.00 | 0.00 | 4 | 1212.1 |
| 20260506170839 | 21 | 67 | 9.7 | 14.5 | 0.00 | 0.00 | 0.00 | 4 | 1212.3 |
| 20260506170336 | 22 | 67 | 9.7 | 16.1 | 0.00 | 0.00 | 0.00 | 4 | 1210.8 |
| 20260506165833 | 22 | 67 | 11.3 | 22.5 | 0.00 | 0.00 | 0.00 | 4 | 1211.8 |
| 20260506165330 | 22 | 90 | 8.0 | 14.5 | 0.00 | 0.00 | 0.00 | 4 | 1209.6 |
| 20260506164827 | 22 | 90 | 9.7 | 16.1 | 0.00 | 0.00 | 0.00 | 4 | 1211.9 |
| 20260506164325 | 22 | 90 | 11.3 | 20.9 | 0.00 | 0.00 | 0.00 | 4 | 1210.2 |
| 20260506163822 | 22 | 90 | 11.3 | 27.4 | 0.00 | 0.00 | 0.00 | 4 | 1209.4 |
| 20260506163319 | 22 | 90 | 12.9 | 22.5 | 0.00 | 0.00 | 0.00 | 4 | 1210.0 |
| 20260506162816 | 22 | 90 | 11.3 | 22.5 | 0.00 | 0.00 | 0.00 | 4 | 1209.2 |
| 20260506161808 | 22 | 90 | 14.5 | 27.4 | 0.00 | 0.00 | 0.00 | 4 | 1209.5 |
| 20260506161305 | 22 | 90 | 14.5 | 22.5 | 0.00 | 0.00 | 0.00 | 4 | 1209.2 |
| 20260506160802 | 23 | 90 | 8.0 | 17.7 | 0.00 | 0.00 | 0.00 | 4 | 1207.6 |
| 20260506160300 | 23 | 90 | 16.1 | 24.1 | 0.00 | 0.00 | 0.00 | 4 | 1209.5 |
| 20260506155757 | 23 | 90 | 14.5 | 29.0 | 0.00 | 0.00 | 0.00 | 4 | 1208.1 |
| 20260506155254 | 23 | 90 | 16.1 | 33.8 | 0.00 | 0.00 | 0.00 | 4 | 1207.6 |
| 20260506154751 | 25 | 135 | 9.7 | 14.5 | 0.00 | 0.00 | 0.00 | 3 | 1204.7 |
| 20260506154249 | 25 | 135 | 0.0 | 0.0 | 0.00 | 0.00 | 0.00 | 2 | 1200.7 |
| 20260506153746 | 25 | 135 | 4.8 | 8.0 | 0.00 | 0.00 | 0.00 | 3 | 1202.0 |
| 20260506153243 | 26 | 135 | 0.0 | 0.0 | 0.00 | 0.00 | 0.00 | 3 | 1200.8 |
| 20260506152740 | 25 | 135 | 6.4 | 6.4 | 0.00 | 0.00 | 0.00 | 3 | 1200.6 |
| 20260506152237 | 25 | 135 | 6.4 | 9.7 | 0.00 | 0.00 | 0.00 | 2 | 1199.0 |
| 20260506151735 | 25 | 135 | 4.8 | 6.4 | 0.00 | 0.00 | 0.00 | 2 | 1199.1 |
| 20260506151232 | 25 | 135 | 4.8 | 6.4 | 0.00 | 0.00 | 0.00 | 2 | 1198.3 |
| 20260506150729 | 25 | 247 | 6.4 | 6.4 | 0.00 | 0.00 | 0.00 | 2 | 1199.0 |
| 20260506150226 | 25 | 247 | 4.8 | 11.3 | 0.00 | 0.00 | 0.00 | 2 | 1198.1 |
| 20260506145723 | 26 | 135 | 4.8 | 9.7 | 0.00 | 0.00 | 0.00 | 2 | 1198.6 |
| 20260506145221 | 26 | 225 | 6.4 | 19.3 | 0.00 | 0.00 | 0.00 | 2 | 1199.2 |
| 20260506144718 | 26 | 90 | 6.4 | 11.3 | 0.00 | 0.00 | 0.00 | 2 | 1199.1 |
| 20260506144215 | 26 | 90 | 4.8 | 6.4 | 0.00 | 0.00 | 0.00 | 2 | 1197.0 |
| 20260506143712 | 26 | 90 | 8.0 | 12.9 | 0.00 | 0.00 | 0.00 | 2 | 1197.6 |
| 20260506143210 | 26 | 90 | 4.8 | 8.0 | 0.00 | 0.00 | 0.00 | 2 | 1200.3 |
| 20260506142707 | 26 | 90 | 4.8 | 9.7 | 0.00 | 0.00 | 0.00 | 3 | 1202.4 |
| 20260506142204 | 26 | 90 | 4.8 | 8.0 | 0.00 | 0.00 | 0.00 | 2 | 1202.3 |
| 20260506141701 | 25 | 90 | 6.4 | 14.5 | 0.00 | 0.00 | 0.00 | 3 | 1204.7 |
| 20260506141159 | 25 | 90 | 12.9 | 25.7 | 0.00 | 0.00 | 0.00 | 3 | 1206.6 |
| 20260506140150 | 25 | 90 | 16.1 | 37.0 | 0.00 | 0.00 | 0.00 | 3 | 1205.8 |
| 20260506135648 | 25 | 90 | 17.7 | 29.0 | 0.00 | 0.00 | 0.00 | 3 | 1205.9 |
| 20260506135145 | 25 | 90 | 17.7 | 32.2 | 0.00 | 0.00 | 0.00 | 3 | 1206.3 |
| 20260506134642 | 25 | 67 | 14.5 | 25.7 | 0.00 | 0.00 | 0.00 | 3 | 1207.0 |
| 20260506134139 | 25 | 67 | 12.9 | 25.7 | 0.00 | 0.00 | 0.00 | 3 | 1204.6 |
| 20260506133637 | 25 | 67 | 11.3 | 25.7 | 0.00 | 0.00 | 0.00 | 3 | 1205.1 |
| 20260506133134 | 25 | 67 | 12.9 | 22.5 | 0.00 | 0.00 | 0.00 | 3 | 1205.0 |
| 20260506132631 | 25 | 67 | 19.3 | 33.8 | 0.00 | 0.00 | 0.00 | 3 | 1207.9 |
| 20260506132128 | 25 | 90 | 16.1 | 27.4 | 0.00 | 0.00 | 0.00 | 3 | 1207.1 |
| 20260506131626 | 25 | 90 | 17.7 | 29.0 | 0.00 | 0.00 | 0.00 | 3 | 1206.8 |
| 20260506131123 | 26 | 90 | 12.9 | 25.7 | 0.00 | 0.00 | 0.00 | 3 | 1206.1 |
| 20260506130620 | 25 | 90 | 17.7 | 35.4 | 0.00 | 0.00 | 0.00 | 3 | 1206.4 |
| 20260506130117 | 25 | 67 | 16.1 | 30.6 | 0.00 | 0.00 | 0.00 | 3 | 1207.2 |
| 20260506125615 | 25 | 90 | 17.7 | 41.8 | 0.00 | 0.00 | 0.00 | 3 | 1208.3 |
| 20260506125112 | 25 | 67 | 11.3 | 20.9 | 0.00 | 0.00 | 0.00 | 3 | 1207.7 |
| 20260506124609 | 24 | 67 | 12.9 | 20.9 | 0.00 | 0.00 | 0.00 | 4 | 1209.7 |
| 20260506124106 | 23 | 90 | 14.5 | 25.7 | 0.00 | 0.00 | 0.00 | 4 | 1210.4 |
| 20260506123603 | 23 | 67 | 19.3 | 41.8 | 0.00 | 0.00 | 0.00 | 4 | 1211.9 |
| 20260506123101 | 23 | 67 | 17.7 | 37.0 | 0.00 | 0.00 | 0.00 | 4 | 1211.8 |
| 20260506122558 | 23 | 90 | 17.7 | 27.4 | 0.00 | 0.00 | 0.00 | 4 | 1210.8 |
| 20260506122055 | 23 | 67 | 16.1 | 30.6 | 0.00 | 0.00 | 0.00 | 4 | 1211.9 |
| 20260506121552 | 23 | 90 | 17.7 | 30.6 | 0.00 | 0.00 | 0.00 | 4 | 1212.2 |
| 20260506121050 | 23 | 90 | 19.3 | 41.8 | 0.00 | 0.00 | 0.00 | 4 | 1213.3 |
| 20260506120547 | 23 | 67 | 16.1 | 27.4 | 0.00 | 0.00 | 0.00 | 4 | 1213.0 |
| 20260506120044 | 23 | 67 | 17.7 | 37.0 | 0.00 | 0.00 | 0.00 | 4 | 1214.2 |
| 20260506115541 | 23 | 90 | 19.3 | 41.8 | 0.00 | 0.00 | 0.00 | 4 | 1214.0 |
| 20260506115038 | 23 | 90 | 19.3 | 41.8 | 0.00 | 0.00 | 0.00 | 4 | 1212.5 |
| 20260506114536 | 23 | 90 | 12.9 | 24.1 | 0.00 | 0.00 | 0.00 | 4 | 1210.5 |
| 20260506114033 | 23 | 90 | 16.1 | 33.8 | 0.00 | 0.00 | 0.00 | 4 | 1211.6 |
| 20260506113530 | 24 | 90 | 16.1 | 29.0 | 0.00 | 0.00 | 0.00 | 3 | 1209.8 |
| 20260506113028 | 24 | 67 | 17.7 | 30.6 | 0.00 | 0.00 | 0.00 | 4 | 1211.9 |
| 20260506112525 | 24 | 67 | 17.7 | 30.6 | 0.00 | 0.00 | 0.00 | 4 | 1211.6 |
| 20260506112022 | 25 | 67 | 12.9 | 22.5 | 0.00 | 0.00 | 0.00 | 4 | 1211.1 |
| 20260506111519 | 23 | 67 | 17.7 | 32.2 | 0.00 | 0.00 | 0.00 | 4 | 1213.1 |
| 20260506111016 | 23 | 90 | 20.9 | 43.5 | 0.00 | 0.00 | 0.00 | 4 | 1214.2 |
| 20260506110514 | 24 | 67 | 16.1 | 30.6 | 0.00 | 0.00 | 0.00 | 4 | 1212.9 |
| 20260506110011 | 23 | 67 | 17.7 | 32.2 | 0.00 | 0.00 | 0.00 | 4 | 1214.0 |
| 20260506105508 | 23 | 90 | 19.3 | 38.6 | 0.00 | 0.00 | 0.00 | 4 | 1214.5 |
| 20260506104500 | 23 | 90 | 19.3 | 33.8 | 0.00 | 0.00 | 0.00 | 4 | 1213.1 |
| 20260506103957 | 23 | 90 | 17.7 | 32.2 | 0.00 | 0.00 | 0.00 | 4 | 1212.1 |
| 20260506103454 | 23 | 90 | 20.9 | 40.2 | 0.00 | 0.00 | 0.00 | 4 | 1216.0 |
| 20260506102951 | 23 | 90 | 19.3 | 38.6 | 0.00 | 0.00 | 0.00 | 4 | 1213.6 |
| 20260506102449 | 23 | 90 | 17.7 | 37.0 | 0.00 | 0.00 | 0.00 | 4 | 1212.8 |
| 20260506101946 | 23 | 90 | 20.9 | 37.0 | 0.00 | 0.00 | 0.00 | 4 | 1214.3 |
| 20260506101443 | 24 | 90 | 16.1 | 33.8 | 0.00 | 0.00 | 0.00 | 4 | 1212.9 |
| 20260506100940 | 23 | 90 | 17.7 | 38.6 | 0.00 | 0.00 | 0.00 | 4 | 1212.9 |
| 20260506100437 | 23 | 90 | 17.7 | 32.2 | 0.00 | 0.00 | 0.00 | 4 | 1213.3 |
| 20260506095935 | 24 | 90 | 17.7 | 35.4 | 0.00 | 0.00 | 0.00 | 4 | 1211.9 |
| 20260506095432 | 23 | 90 | 16.1 | 37.0 | 0.00 | 0.00 | 0.00 | 4 | 1214.7 |
| 20260506094929 | 23 | 90 | 22.5 | 37.0 | 0.00 | 0.00 | 0.00 | 4 | 1215.2 |
| 20260506094426 | 23 | 90 | 17.7 | 33.8 | 0.00 | 0.00 | 0.00 | 4 | 1215.1 |
| 20260506093418 | 23 | 67 | 14.5 | 29.0 | 0.00 | 0.00 | 0.00 | 4 | 1213.4 |
| 20260506092915 | 23 | 90 | 16.1 | 25.7 | 0.00 | 0.00 | 0.00 | 4 | 1214.6 |
| 20260506092413 | 23 | 90 | 12.9 | 22.5 | 0.00 | 0.00 | 0.00 | 4 | 1212.6 |
| 20260506091910 | 24 | 90 | 11.3 | 17.7 | 0.00 | 0.00 | 0.00 | 4 | 1214.2 |
| 20260506091407 | 22 | 90 | 16.1 | 27.4 | 0.00 | 0.00 | 0.00 | 4 | 1216.2 |
| 20260506090904 | 23 | 67 | 12.9 | 20.9 | 0.00 | 0.00 | 0.00 | 4 | 1214.6 |
| 20260506090401 | 22 | 67 | 11.3 | 19.3 | 0.00 | 0.00 | 0.00 | 4 | 1215.1 |
| 20260506085859 | 22 | 67 | 9.7 | 16.1 | 0.00 | 0.00 | 0.00 | 4 | 1214.3 |
| 20260506085356 | 22 | 67 | 14.5 | 25.7 | 0.00 | 0.00 | 0.00 | 4 | 1216.6 |
| 20260506084853 | 23 | 90 | 11.3 | 20.9 | 0.00 | 0.00 | 0.00 | 3 | 1212.6 |
| 20260506084350 | 22 | 112 | 6.4 | 16.1 | 0.00 | 0.00 | 0.00 | 4 | 1212.6 |
| 20260506083848 | 22 | 112 | 9.7 | 20.9 | 0.00 | 0.00 | 0.00 | 4 | 1214.4 |
| 20260506083345 | 23 | 135 | 8.0 | 11.3 | 0.00 | 0.00 | 0.00 | 4 | 1212.5 |
| 20260506082844 | 23 | 135 | 6.4 | 16.1 | 0.00 | 0.00 | 0.00 | 4 | 1212.3 |
| 20260506082339 | 22 | 135 | 4.8 | 8.0 | 0.00 | 0.00 | 0.00 | 4 | 1217.2 |
| 20260506081837 | 22 | 135 | 4.8 | 8.0 | 0.00 | 0.00 | 0.00 | 4 | 1214.4 |
| 20260506081334 | 21 | 135 | 4.8 | 6.4 | 0.00 | 0.00 | 0.00 | 4 | 1218.2 |
| 20260506080326 | 21 | 135 | 0.0 | 0.0 | 0.00 | 0.00 | 0.00 | 4 | 1215.5 |
| 20260506073306 | 21 | 135 | 4.8 | 11.3 | 0.00 | 0.00 | 0.00 | 4 | 1214.3 |
| 20260506072258 | 21 | 135 | 4.8 | 4.8 | 0.00 | 0.00 | 0.00 | 4 | 1216.0 |
| 20260506071755 | 20 | 135 | 6.4 | 9.7 | 0.00 | 0.00 | 0.00 | 4 | 1216.2 |
| 20260506071253 | 21 | 135 | 0.0 | 0.0 | 0.00 | 0.00 | 0.00 | 4 | 1212.8 |
| 20260506070750 | 22 | 135 | 0.0 | 0.0 | 0.00 | 0.00 | 0.00 | 4 | 1211.6 |
| 20260506070247 | 21 | 135 | 0.0 | 0.0 | 0.00 | 0.00 | 0.00 | 4 | 1217.4 |
| 20260506062222 | 20 | 135 | 0.0 | 4.8 | 0.00 | 0.00 | 0.00 | 4 | 1218.9 |
| 20260506061720 | 20 | 135 | 4.8 | 8.0 | 0.00 | 0.00 | 0.00 | 4 | 1215.5 |
| 20260506061217 | 20 | 135 | 4.8 | 0.0 | 0.00 | 0.00 | 0.00 | 4 | 1213.9 |